Time;durP1;ratioP1;P1;durP2;ratioP2;P2;SDS_P1;SDS_P2;PMS_P1;PMS_P2;Temp;Humidity;BMP_temperature;BMP_pressure;BME280_temperature;BME280_humidity;BME280_pressure;Samples;Min_cycle;Max_cycle;Signal;HPM_P1;HPM_P2
2022/11/15 00:01:08;;;;;;;;;;;23.20;99.80;;;;;;5052469;28;19909;-72
2022/11/15 00:03:35;;;;;;;;;;;23.10;99.70;;;;;;5052999;28;19920;-71
2022/11/15 00:06:03;;;;;;;;;;;22.90;99.00;;;;;;5053144;28;20569;-72
2022/11/15 00:08:31;;;;;;;;;;;23.20;99.90;;;;;;5053194;28;19936;-71
2022/11/15 00:10:58;;;;;;;;;;;23.20;99.50;;;;;;5052670;28;20398;-70
2022/11/15 00:13:25;;;;;;;;;;;22.90;98.90;;;;;;5052749;28;20322;-71
2022/11/15 00:15:52;;;;;;;;;;;22.60;99.90;;;;;;5052133;28;19916;-71
2022/11/15 00:18:19;;;;;;;;;;;22.30;99.90;;;;;;5052187;28;19966;-69
2022/11/15 00:20:45;;;;;;;;;;;22.10;99.90;;;;;;5052951;28;19909;-65
2022/11/15 00:23:12;;;;;;;;;;;22.00;99.90;;;;;;5052939;28;19944;-62
2022/11/15 00:25:39;;;;;;;;;;;21.80;99.90;;;;;;5052962;28;19909;-62
2022/11/15 00:28:05;;;;;;;;;;;21.80;99.90;;;;;;5053375;28;19909;-62
2022/11/15 00:30:32;;;;;;;;;;;21.80;99.90;;;;;;5055841;28;19943;-62
2022/11/15 00:33:03;;;;;;;;;;;22.00;99.90;;;;;;5055861;28;19913;-64
2022/11/15 00:35:32;;;;;;;;;;;22.00;99.90;;;;;;5056830;28;19967;-72
2022/11/15 00:37:59;;;;;;;;;;;21.90;99.90;;;;;;5056584;28;20283;-68
2022/11/15 00:40:25;;;;;;;;;;;21.90;99.90;;;;;;5056820;28;19971;-72
2022/11/15 00:42:52;;;;;;;;;;;22.00;99.90;;;;;;5056248;28;19916;-70
2022/11/15 00:45:19;;;;;;;;;;;21.90;99.90;;;;;;5055847;28;19962;-72
2022/11/15 00:47:46;;;;;;;;;;;21.80;99.90;;;;;;5055769;28;20359;-71
2022/11/15 00:50:13;;;;;;;;;;;21.90;99.90;;;;;;5056527;28;19927;-71
2022/11/15 00:52:40;;;;;;;;;;;22.00;99.90;;;;;;5056661;28;19908;-71
2022/11/15 00:55:07;;;;;;;;;;;22.10;99.90;;;;;;5056031;28;19923;-71
2022/11/15 00:57:33;;;;;;;;;;;22.20;99.90;;;;;;5055346;28;20002;-71
2022/11/15 01:00:00;;;;;;;;;;;22.30;99.90;;;;;;5054505;28;20322;-69
2022/11/15 01:02:27;;;;;;;;;;;22.60;99.90;;;;;;5054811;28;19912;-69
2022/11/15 01:04:54;;;;;;;;;;;23.10;99.90;;;;;;5056053;28;19913;-70
2022/11/15 01:07:21;;;;;;;;;;;23.50;99.90;;;;;;5056136;28;20422;-70
2022/11/15 01:09:47;;;;;;;;;;;23.40;99.90;;;;;;5056077;28;19970;-71
2022/11/15 01:12:14;;;;;;;;;;;23.00;99.90;;;;;;5055091;28;19917;-71
2022/11/15 01:14:41;;;;;;;;;;;22.70;99.90;;;;;;5054895;28;19913;-71
2022/11/15 01:17:07;;;;;;;;;;;22.40;99.90;;;;;;5055804;28;19976;-70
2022/11/15 01:19:34;;;;;;;;;;;22.30;99.90;;;;;;5055899;28;19912;-69
2022/11/15 01:22:01;;;;;;;;;;;22.20;99.90;;;;;;5055934;28;20003;-71
2022/11/15 01:24:27;;;;;;;;;;;22.30;99.90;;;;;;5055892;28;19915;-69
2022/11/15 01:26:54;;;;;;;;;;;22.20;99.90;;;;;;5055491;28;20339;-71
2022/11/15 01:29:21;;;;;;;;;;;22.10;99.90;;;;;;5054910;28;19919;-68
2022/11/15 01:31:47;;;;;;;;;;;22.00;99.90;;;;;;5055719;28;19917;-70
2022/11/15 01:34:14;;;;;;;;;;;21.80;99.90;;;;;;5055679;28;19935;-64
2022/11/15 01:36:41;;;;;;;;;;;21.90;99.90;;;;;;5055479;28;19995;-71
2022/11/15 01:39:08;;;;;;;;;;;21.80;99.90;;;;;;5054914;28;20352;-64
2022/11/15 01:41:35;;;;;;;;;;;21.70;99.90;;;;;;5055506;28;20367;-67
2022/11/15 01:44:19;;;;;;;;;;;21.80;99.90;;;;;;5054571;28;19913;-62
2022/11/15 01:46:47;;;;;;;;;;;21.70;99.90;;;;;;5055237;28;19920;-64
2022/11/15 01:49:18;;;;;;;;;;;21.70;99.90;;;;;;5055378;28;19908;-62
2022/11/15 01:51:45;;;;;;;;;;;21.60;99.90;;;;;;5055371;28;20026;-62
2022/11/15 01:54:14;;;;;;;;;;;21.60;99.90;;;;;;5055403;28;19931;-66
2022/11/15 01:56:46;;;;;;;;;;;21.60;99.90;;;;;;5054382;28;19921;-61
2022/11/15 01:59:13;;;;;;;;;;;21.60;99.90;;;;;;5055281;28;19913;-71
2022/11/15 02:01:39;;;;;;;;;;;21.70;99.90;;;;;;5055137;28;19913;-67
2022/11/15 02:04:12;;;;;;;;;;;22.00;99.90;;;;;;5055130;28;19909;-65
2022/11/15 02:06:40;;;;;;;;;;;22.00;99.90;;;;;;5054979;28;19944;-62
2022/11/15 02:09:06;;;;;;;;;;;22.10;99.90;;;;;;5054716;28;19931;-64
2022/11/15 02:11:33;;;;;;;;;;;22.40;99.90;;;;;;5053683;28;19943;-66
2022/11/15 02:14:01;;;;;;;;;;;22.60;99.90;;;;;;5054931;28;19913;-62
2022/11/15 02:16:31;;;;;;;;;;;22.40;99.90;;;;;;5054841;28;19916;-64
2022/11/15 02:19:18;;;;;;;;;;;22.30;99.90;;;;;;5054598;28;19954;-65
2022/11/15 02:22:11;;;;;;;;;;;22.10;99.90;;;;;;5040559;28;20008;-62
2022/11/15 02:24:50;;;;;;;;;;;22.10;99.90;;;;;;5054699;28;19909;-62
2022/11/15 02:27:28;;;;;;;;;;;21.80;99.90;;;;;;5053699;28;19915;-63
2022/11/15 02:30:01;;;;;;;;;;;21.80;99.90;;;;;;5054471;28;19920;-63
2022/11/15 02:32:34;;;;;;;;;;;21.70;99.90;;;;;;5054399;28;19913;-64
2022/11/15 02:35:18;;;;;;;;;;;21.80;99.90;;;;;;5054390;28;19952;-66
2022/11/15 02:37:45;;;;;;;;;;;21.80;99.90;;;;;;5054347;28;20359;-63
2022/11/15 02:40:12;;;;;;;;;;;22.00;99.90;;;;;;5054260;28;19909;-62
2022/11/15 02:45:31;;;;;;;;;;;22.10;99.90;;;;;;5054240;28;19920;-64
2022/11/15 02:47:59;;;;;;;;;;;22.00;99.90;;;;;;5054209;28;20038;-63
2022/11/15 02:50:27;;;;;;;;;;;22.20;99.90;;;;;;5053700;28;19913;-64
2022/11/15 02:52:54;;;;;;;;;;;22.30;99.90;;;;;;5053697;28;20436;-63
2022/11/15 02:55:28;;;;;;;;;;;22.40;99.90;;;;;;5053762;28;19943;-61
2022/11/15 02:58:04;;;;;;;;;;;22.40;99.90;;;;;;5054054;28;19913;-62
2022/11/15 03:00:35;;;;;;;;;;;22.30;99.90;;;;;;5054006;28;19962;-66
2022/11/15 03:03:10;;;;;;;;;;;22.20;99.90;;;;;;5053807;28;20368;-63
2022/11/15 03:06:12;;;;;;;;;;;22.20;99.90;;;;;;5054034;28;19909;-64
2022/11/15 03:08:48;;;;;;;;;;;22.30;99.90;;;;;;4972945;28;19916;-61
2022/11/15 03:11:18;;;;;;;;;;;22.40;99.90;;;;;;5041503;28;19920;-61
2022/11/15 03:14:09;;;;;;;;;;;22.10;99.90;;;;;;5053884;28;19915;-62
2022/11/15 03:16:39;;;;;;;;;;;21.90;99.90;;;;;;5053995;28;19909;-62
2022/11/15 03:19:08;;;;;;;;;;;22.00;99.90;;;;;;5053436;28;19920;-66
2022/11/15 03:21:37;;;;;;;;;;;22.00;99.90;;;;;;5053823;28;19909;-62
2022/11/15 03:24:05;;;;;;;;;;;21.90;99.90;;;;;;5053463;28;19912;-62
2022/11/15 03:26:33;;;;;;;;;;;21.90;99.90;;;;;;5051539;28;19919;-62
2022/11/15 03:29:03;;;;;;;;;;;21.80;99.90;;;;;;5053256;28;19909;-61
2022/11/15 03:31:46;;;;;;;;;;;21.70;99.90;;;;;;5053356;28;19917;-64
2022/11/15 03:34:21;;;;;;;;;;;21.50;99.90;;;;;;5053404;28;19966;-64
2022/11/15 03:36:50;;;;;;;;;;;21.60;99.90;;;;;;5053190;28;20360;-62
2022/11/15 03:39:17;;;;;;;;;;;21.60;99.90;;;;;;5053401;28;20571;-62
2022/11/15 03:41:48;;;;;;;;;;;21.50;99.90;;;;;;5051953;28;19935;-62
2022/11/15 03:44:19;;;;;;;;;;;21.50;99.90;;;;;;5053268;28;20334;-62
2022/11/15 03:46:46;;;;;;;;;;;21.30;99.90;;;;;;5053426;28;19954;-61
2022/11/15 03:49:15;;;;;;;;;;;21.30;99.90;;;;;;5053092;28;19996;-62
2022/11/15 03:51:42;;;;;;;;;;;21.30;99.90;;;;;;5052772;28;19917;-61
2022/11/15 03:54:09;;;;;;;;;;;21.50;99.90;;;;;;5053150;28;19909;-62
2022/11/15 03:56:35;;;;;;;;;;;21.60;99.90;;;;;;5051835;28;19921;-62
2022/11/15 03:59:02;;;;;;;;;;;21.60;99.90;;;;;;5052805;28;19909;-61
2022/11/15 04:01:29;;;;;;;;;;;21.60;99.90;;;;;;5053024;28;19909;-63
2022/11/15 04:03:55;;;;;;;;;;;21.60;99.90;;;;;;5059403;28;19909;-62
2022/11/15 04:06:22;;;;;;;;;;;21.60;99.90;;;;;;5059697;28;19909;-63
2022/11/15 04:08:49;;;;;;;;;;;21.50;99.90;;;;;;5059280;28;20015;-62
2022/11/15 04:11:15;;;;;;;;;;;21.20;99.90;;;;;;5057571;28;19928;-71
2022/11/15 04:13:42;;;;;;;;;;;21.00;99.90;;;;;;5059632;28;20279;-64
2022/11/15 04:16:09;;;;;;;;;;;20.90;99.90;;;;;;5059634;28;20355;-67
2022/11/15 04:18:35;;;;;;;;;;;20.90;99.90;;;;;;5059419;28;19999;-68
2022/11/15 04:26:31;;;;;;;;;;;20.80;99.90;;;;;;5059738;28;20245;-62
2022/11/15 04:31:43;;;;;;;;;;;20.70;99.90;;;;;;5059651;28;20041;-62
2022/11/15 04:34:09;;;;;;;;;;;20.60;99.90;;;;;;5058314;28;19909;-62
2022/11/15 04:39:20;;;;;;;;;;;20.50;99.90;;;;;;5059082;28;20322;-62
2022/11/15 04:41:48;;;;;;;;;;;20.50;99.90;;;;;;5058539;28;20343;-62
2022/11/15 04:44:16;;;;;;;;;;;20.60;99.90;;;;;;5059561;28;19909;-64
2022/11/15 04:46:43;;;;;;;;;;;20.70;99.90;;;;;;5059384;28;19912;-65
2022/11/15 04:49:10;;;;;;;;;;;20.80;99.90;;;;;;5059481;28;19955;-62
2022/11/15 04:51:36;;;;;;;;;;;20.80;99.90;;;;;;5059269;28;19917;-62
2022/11/15 04:54:03;;;;;;;;;;;20.90;99.90;;;;;;5058411;28;20321;-64
2022/11/15 04:56:30;;;;;;;;;;;21.00;99.90;;;;;;5044816;28;19964;-63
2022/11/15 04:58:56;;;;;;;;;;;21.00;99.90;;;;;;5038991;28;19909;-63
2022/11/15 05:01:23;;;;;;;;;;;21.00;99.90;;;;;;5039132;28;19909;-62
2022/11/15 05:06:34;;;;;;;;;;;21.10;99.90;;;;;;5039765;28;19971;-63
2022/11/15 05:09:01;;;;;;;;;;;21.20;99.90;;;;;;5045216;28;19913;-64
2022/11/15 05:11:28;;;;;;;;;;;21.10;99.90;;;;;;5058967;28;20417;-67
2022/11/15 05:13:55;;;;;;;;;;;21.00;99.90;;;;;;5057443;28;20433;-64
2022/11/15 05:16:21;;;;;;;;;;;20.80;99.90;;;;;;5056132;28;19908;-69
2022/11/15 05:18:51;;;;;;;;;;;20.70;99.90;;;;;;5055907;28;20264;-70
2022/11/15 05:21:18;;;;;;;;;;;20.70;99.90;;;;;;5056094;28;20364;-71
2022/11/15 05:23:45;;;;;;;;;;;20.70;99.90;;;;;;5055958;28;19913;-71
2022/11/15 05:26:12;;;;;;;;;;;20.70;99.90;;;;;;5055050;28;19920;-70
2022/11/15 05:28:38;;;;;;;;;;;20.70;99.90;;;;;;5056101;28;19909;-71
2022/11/15 05:31:07;;;;;;;;;;;20.60;99.90;;;;;;5055584;28;19927;-70
2022/11/15 05:33:34;;;;;;;;;;;20.50;99.90;;;;;;5055940;28;20378;-60
2022/11/15 05:36:04;;;;;;;;;;;20.50;99.90;;;;;;5055422;28;19915;-71
2022/11/15 05:38:31;;;;;;;;;;;20.50;99.90;;;;;;5054513;28;19920;-73
2022/11/15 05:40:59;;;;;;;;;;;20.60;99.90;;;;;;5055132;28;19909;-71
2022/11/15 05:43:26;;;;;;;;;;;20.60;99.90;;;;;;5055437;28;19909;-72
2022/11/15 05:45:53;;;;;;;;;;;20.60;99.90;;;;;;5054350;28;19909;-76
2022/11/15 05:48:20;;;;;;;;;;;20.60;99.90;;;;;;5055642;28;19908;-71
2022/11/15 05:50:47;;;;;;;;;;;20.70;99.90;;;;;;5053778;28;19916;-73
2022/11/15 05:53:16;;;;;;;;;;;20.60;99.90;;;;;;5052416;28;19962;-70
2022/11/15 05:55:43;;;;;;;;;;;20.60;99.90;;;;;;5051411;28;20395;-64
2022/11/15 05:58:09;;;;;;;;;;;20.60;99.90;;;;;;5053518;28;20031;-68
2022/11/15 06:00:36;;;;;;;;;;;20.60;99.90;;;;;;5053041;28;20309;-61
2022/11/15 06:03:03;;;;;;;;;;;20.70;99.90;;;;;;5052879;28;19961;-63
2022/11/15 06:05:29;;;;;;;;;;;20.70;99.90;;;;;;5052663;28;19916;-61
2022/11/15 06:07:59;;;;;;;;;;;20.60;99.90;;;;;;5052090;28;19913;-67
2022/11/15 06:10:26;;;;;;;;;;;20.60;99.90;;;;;;5052277;28;19917;-64
2022/11/15 06:12:59;;;;;;;;;;;20.50;99.90;;;;;;5052829;28;19908;-66
2022/11/15 06:15:27;;;;;;;;;;;20.50;99.90;;;;;;5052860;28;20359;-71
2022/11/15 06:17:57;;;;;;;;;;;20.50;99.90;;;;;;5052647;28;19919;-71
2022/11/15 06:20:28;;;;;;;;;;;20.50;99.90;;;;;;5053054;28;19948;-72
2022/11/15 06:23:01;;;;;;;;;;;20.50;99.90;;;;;;5051972;28;19921;-71
2022/11/15 06:25:28;;;;;;;;;;;20.50;99.90;;;;;;5050987;28;19913;-71
2022/11/15 06:27:56;;;;;;;;;;;20.60;99.90;;;;;;5052496;28;20398;-67
2022/11/15 06:30:23;;;;;;;;;;;20.50;99.90;;;;;;5052352;28;19978;-71
2022/11/15 06:32:50;;;;;;;;;;;20.50;99.90;;;;;;5052734;28;20240;-71
2022/11/15 06:35:17;;;;;;;;;;;20.50;99.90;;;;;;5052593;28;19913;-71
2022/11/15 06:37:43;;;;;;;;;;;20.50;99.90;;;;;;5051526;28;20347;-66
2022/11/15 06:40:10;;;;;;;;;;;20.50;99.90;;;;;;5052005;28;19982;-71
2022/11/15 06:42:37;;;;;;;;;;;20.50;99.90;;;;;;5052503;28;19920;-71
2022/11/15 06:45:04;;;;;;;;;;;20.50;99.90;;;;;;5051786;28;19920;-71
2022/11/15 06:47:31;;;;;;;;;;;20.60;99.90;;;;;;5052504;28;19909;-73
2022/11/15 06:49:57;;;;;;;;;;;20.60;99.90;;;;;;5052545;28;19977;-70
2022/11/15 06:52:24;;;;;;;;;;;20.70;99.90;;;;;;5051676;28;19967;-70
2022/11/15 06:54:51;;;;;;;;;;;20.60;99.90;;;;;;5050657;28;19944;-70
2022/11/15 06:57:17;;;;;;;;;;;20.50;99.90;;;;;;5051948;28;19913;-69
2022/11/15 06:59:44;;;;;;;;;;;20.50;99.90;;;;;;5051730;28;19956;-71
2022/11/15 07:02:14;;;;;;;;;;;20.50;99.90;;;;;;5052341;28;20007;-71
2022/11/15 07:04:40;;;;;;;;;;;20.60;99.90;;;;;;5052219;28;19991;-62
2022/11/15 07:07:07;;;;;;;;;;;20.60;99.90;;;;;;5051083;28;19913;-62
2022/11/15 07:09:34;;;;;;;;;;;20.50;99.90;;;;;;5051114;28;19920;-64
2022/11/15 07:12:00;;;;;;;;;;;20.40;99.90;;;;;;5051901;28;19917;-66
2022/11/15 07:14:27;;;;;;;;;;;20.30;99.90;;;;;;5051903;28;19909;-63
2022/11/15 07:16:54;;;;;;;;;;;20.30;99.90;;;;;;5051613;28;20350;-62
2022/11/15 07:19:20;;;;;;;;;;;20.30;99.90;;;;;;5052055;28;20059;-69
2022/11/15 07:21:47;;;;;;;;;;;20.40;99.90;;;;;;5050761;28;19971;-68
2022/11/15 07:24:14;;;;;;;;;;;20.40;99.90;;;;;;5050691;28;20496;-65
2022/11/15 07:26:40;;;;;;;;;;;20.40;99.90;;;;;;5051888;28;19934;-62
2022/11/15 07:29:07;;;;;;;;;;;20.30;99.90;;;;;;5051655;28;19909;-69
2022/11/15 07:31:34;;;;;;;;;;;20.40;99.90;;;;;;5051656;28;19966;-64
2022/11/15 07:34:00;;;;;;;;;;;20.30;99.90;;;;;;5051680;28;19959;-63
2022/11/15 07:36:27;;;;;;;;;;;20.40;99.90;;;;;;5050971;28;19915;-62
2022/11/15 07:38:54;;;;;;;;;;;20.30;99.90;;;;;;5051092;28;20383;-62
2022/11/15 07:41:20;;;;;;;;;;;20.20;99.90;;;;;;5051403;28;19988;-62
2022/11/15 07:43:47;;;;;;;;;;;20.10;99.90;;;;;;5051420;28;20461;-63
2022/11/15 07:46:14;;;;;;;;;;;20.10;99.90;;;;;;5045103;28;19928;-62
2022/11/15 07:48:40;;;;;;;;;;;20.10;99.90;;;;;;5044178;28;19946;-62
2022/11/15 07:51:07;;;;;;;;;;;20.10;99.90;;;;;;5035602;28;20016;-67
2022/11/15 07:53:34;;;;;;;;;;;20.10;99.90;;;;;;5033514;28;20413;-62
2022/11/15 07:56:00;;;;;;;;;;;20.10;99.90;;;;;;5037435;28;19967;-65
2022/11/15 07:58:27;;;;;;;;;;;20.10;99.90;;;;;;5034728;28;20299;-61
2022/11/15 08:00:54;;;;;;;;;;;20.10;99.90;;;;;;5036042;28;20510;-66
2022/11/15 08:03:21;;;;;;;;;;;20.00;99.90;;;;;;5034723;28;20394;-62
2022/11/15 08:05:52;;;;;;;;;;;19.90;99.90;;;;;;5034618;28;20537;-64
2022/11/15 08:08:19;;;;;;;;;;;19.90;99.90;;;;;;5037897;28;19920;-63
2022/11/15 08:10:45;;;;;;;;;;;19.90;99.90;;;;;;5034908;28;20304;-63
2022/11/15 08:13:12;;;;;;;;;;;19.90;99.90;;;;;;5027462;28;19920;-63
2022/11/15 08:15:39;;;;;;;;;;;19.90;99.90;;;;;;5024468;28;19975;-61
2022/11/15 08:18:07;;;;;;;;;;;19.50;99.90;;;;;;5024645;28;19964;-62
2022/11/15 08:20:34;;;;;;;;;;;19.40;99.90;;;;;;5024683;28;19920;-63
2022/11/15 08:23:01;;;;;;;;;;;19.20;99.90;;;;;;5023583;28;19939;-62
2022/11/15 08:25:29;;;;;;;;;;;19.20;99.90;;;;;;5035251;28;19979;-63
2022/11/15 08:27:57;;;;;;;;;;;19.10;99.90;;;;;;5044205;28;19919;-62
2022/11/15 08:30:24;;;;;;;;;;;19.00;99.90;;;;;;5050227;28;20367;-64
2022/11/15 08:32:52;;;;;;;;;;;19.00;99.90;;;;;;5052579;28;19920;-62
2022/11/15 08:35:19;;;;;;;;;;;18.90;99.90;;;;;;5049998;28;19999;-64
2022/11/15 08:37:46;;;;;;;;;;;18.90;99.90;;;;;;5052871;28;19917;-62
2022/11/15 08:40:13;;;;;;;;;;;18.90;99.90;;;;;;5052659;28;19916;-62
2022/11/15 08:42:40;;;;;;;;;;;18.90;99.90;;;;;;5052980;28;19916;-62
2022/11/15 08:45:08;;;;;;;;;;;18.90;99.90;;;;;;5052639;28;19909;-64
2022/11/15 08:47:35;;;;;;;;;;;18.90;99.90;;;;;;5052745;28;20058;-61
2022/11/15 08:50:01;;;;;;;;;;;18.90;99.90;;;;;;5054090;28;19916;-61
2022/11/15 08:52:28;;;;;;;;;;;18.90;99.90;;;;;;5055801;28;19917;-64
2022/11/15 08:54:55;;;;;;;;;;;18.90;99.90;;;;;;5055847;28;20375;-64
2022/11/15 08:57:21;;;;;;;;;;;18.90;99.90;;;;;;5056507;28;19936;-62
2022/11/15 08:59:48;;;;;;;;;;;18.90;99.90;;;;;;5056488;28;19909;-63
2022/11/15 09:02:15;;;;;;;;;;;18.90;99.90;;;;;;5056413;28;20310;-68
2022/11/15 09:04:42;;;;;;;;;;;18.80;99.90;;;;;;5055494;28;19999;-65
2022/11/15 09:07:10;;;;;;;;;;;18.80;99.90;;;;;;5055571;28;20003;-64
2022/11/15 09:09:37;;;;;;;;;;;18.90;99.90;;;;;;5056134;28;20434;-64
2022/11/15 09:12:04;;;;;;;;;;;18.80;99.90;;;;;;5056031;28;19943;-62
2022/11/15 09:14:31;;;;;;;;;;;18.90;99.90;;;;;;5055958;28;19913;-63
2022/11/15 09:16:58;;;;;;;;;;;18.90;99.90;;;;;;5054991;28;20003;-66
2022/11/15 09:19:25;;;;;;;;;;;18.90;99.90;;;;;;5055220;28;19913;-62
2022/11/15 09:21:51;;;;;;;;;;;19.00;99.90;;;;;;5053325;28;19909;-67
2022/11/15 09:24:18;;;;;;;;;;;18.90;99.90;;;;;;5053897;28;19940;-67
2022/11/15 09:26:48;;;;;;;;;;;19.00;99.90;;;;;;5053848;28;20280;-65
2022/11/15 09:29:15;;;;;;;;;;;19.00;99.90;;;;;;5053866;28;19908;-63
2022/11/15 09:31:41;;;;;;;;;;;19.10;99.90;;;;;;5052606;28;19973;-69
2022/11/15 09:34:08;;;;;;;;;;;19.10;99.90;;;;;;5048748;28;20400;-64
2022/11/15 09:36:35;;;;;;;;;;;19.10;99.90;;;;;;5037966;28;19983;-64
2022/11/15 09:39:02;;;;;;;;;;;19.10;99.90;;;;;;5042906;28;19939;-71
2022/11/15 09:41:32;;;;;;;;;;;19.10;99.90;;;;;;5036918;28;19921;-68
2022/11/15 09:44:15;;;;;;;;;;;19.10;99.90;;;;;;5037378;28;19917;-68
2022/11/15 09:47:00;;;;;;;;;;;19.10;99.90;;;;;;5037284;28;20031;-72
2022/11/15 09:49:29;;;;;;;;;;;19.00;99.90;;;;;;5037263;28;19938;-70
2022/11/15 09:51:56;;;;;;;;;;;19.10;99.90;;;;;;5037262;28;19921;-72
2022/11/15 09:54:31;;;;;;;;;;;19.20;99.90;;;;;;5037020;28;20375;-72
2022/11/15 09:57:04;;;;;;;;;;;19.20;99.90;;;;;;5042270;28;20616;-72
2022/11/15 09:59:47;;;;;;;;;;;19.20;99.90;;;;;;5044805;28;20382;-69
2022/11/15 10:02:40;;;;;;;;;;;19.20;99.90;;;;;;5046637;28;20416;-71
2022/11/15 10:05:10;;;;;;;;;;;19.10;99.90;;;;;;5042569;28;19923;-71
2022/11/15 10:07:49;;;;;;;;;;;18.80;99.90;;;;;;5046523;28;19913;-71
2022/11/15 10:10:15;;;;;;;;;;;18.90;99.90;;;;;;5046149;28;19924;-72
2022/11/15 10:12:47;;;;;;;;;;;18.50;99.90;;;;;;5045245;28;19967;-66
2022/11/15 10:15:15;;;;;;;;;;;18.50;99.90;;;;;;5046073;28;19924;-71
2022/11/15 10:17:51;;;;;;;;;;;18.30;99.90;;;;;;5046156;28;19966;-71
2022/11/15 10:20:22;;;;;;;;;;;18.10;99.90;;;;;;5046258;28;19913;-70
2022/11/15 10:22:54;;;;;;;;;;;18.20;99.90;;;;;;5045535;28;19958;-65
2022/11/15 10:25:23;;;;;;;;;;;18.10;99.90;;;;;;5035546;28;19996;-71
2022/11/15 10:27:54;;;;;;;;;;;17.90;99.90;;;;;;5034436;28;19967;-67
2022/11/15 10:30:21;;;;;;;;;;;17.80;99.90;;;;;;5037257;28;20363;-70
2022/11/15 10:32:49;;;;;;;;;;;17.70;99.90;;;;;;5045441;28;19956;-72
2022/11/15 10:35:27;;;;;;;;;;;17.70;99.90;;;;;;5045962;28;19913;-71
2022/11/15 10:38:05;;;;;;;;;;;17.70;99.90;;;;;;5044756;28;19960;-72
2022/11/15 10:40:31;;;;;;;;;;;17.60;99.90;;;;;;5045931;28;19924;-72
2022/11/15 10:43:10;;;;;;;;;;;17.60;99.90;;;;;;5045664;28;19913;-71
2022/11/15 10:45:38;;;;;;;;;;;17.70;99.90;;;;;;5045854;28;19920;-68
2022/11/15 10:48:13;;;;;;;;;;;17.70;99.90;;;;;;5044796;28;19994;-71
2022/11/15 10:50:41;;;;;;;;;;;17.70;99.90;;;;;;5045698;28;19924;-72
2022/11/15 10:53:17;;;;;;;;;;;17.70;99.90;;;;;;5040466;28;19913;-72
2022/11/15 10:55:47;;;;;;;;;;;17.60;99.90;;;;;;5030831;28;19925;-70
2022/11/15 10:58:40;;;;;;;;;;;17.60;99.90;;;;;;5042299;28;19931;-71
2022/11/15 11:01:41;;;;;;;;;;;17.60;99.90;;;;;;5043533;28;19919;-72
2022/11/15 11:04:09;;;;;;;;;;;17.60;99.90;;;;;;5022889;28;19912;-69
2022/11/15 11:06:56;;;;;;;;;;;17.60;99.90;;;;;;5045257;28;19999;-72
2022/11/15 11:09:22;;;;;;;;;;;17.70;99.90;;;;;;5044911;28;19913;-71
2022/11/15 11:11:50;;;;;;;;;;;17.70;99.90;;;;;;5043786;28;19962;-71
2022/11/15 11:14:28;;;;;;;;;;;17.60;99.90;;;;;;5043923;28;19917;-72
2022/11/15 11:16:58;;;;;;;;;;;17.60;99.90;;;;;;5045266;28;19916;-62
2022/11/15 11:19:24;;;;;;;;;;;17.60;99.90;;;;;;5045107;28;19956;-61
2022/11/15 11:22:06;;;;;;;;;;;17.50;99.90;;;;;;5045031;28;19913;-61
2022/11/15 11:24:45;;;;;;;;;;;17.40;99.90;;;;;;5044792;28;20003;-61
2022/11/15 11:27:22;;;;;;;;;;;17.20;99.90;;;;;;5037197;28;19924;-61
2022/11/15 11:29:55;;;;;;;;;;;17.10;99.90;;;;;;5034987;28;20486;-63
2022/11/15 11:32:40;;;;;;;;;;;17.10;99.90;;;;;;5035369;28;19920;-63
2022/11/15 11:35:12;;;;;;;;;;;17.00;99.90;;;;;;5031989;28;19917;-63
2022/11/15 11:37:48;;;;;;;;;;;16.90;99.90;;;;;;5035681;28;19924;-62
2022/11/15 11:40:32;;;;;;;;;;;16.90;99.90;;;;;;5041200;28;19921;-70
2022/11/15 11:43:25;;;;;;;;;;;16.80;99.90;;;;;;5042249;28;19920;-65
2022/11/15 11:45:58;;;;;;;;;;;16.80;99.90;;;;;;5040495;28;19919;-65
2022/11/15 11:48:45;;;;;;;;;;;16.70;99.90;;;;;;5044070;28;19935;-63
2022/11/15 11:51:24;;;;;;;;;;;16.60;99.90;;;;;;5042766;28;19928;-62
2022/11/15 11:53:57;;;;;;;;;;;16.70;99.90;;;;;;5044013;28;20333;-61
2022/11/15 11:56:26;;;;;;;;;;;16.70;99.90;;;;;;5044968;28;20394;-61
2022/11/15 11:58:54;;;;;;;;;;;16.60;99.90;;;;;;5042816;28;19921;-72
2022/11/15 12:01:32;;;;;;;;;;;16.60;99.90;;;;;;5043869;28;19924;-72
2022/11/15 12:03:59;;;;;;;;;;;16.60;99.90;;;;;;5043733;28;19927;-63
2022/11/15 12:06:44;;;;;;;;;;;16.60;99.90;;;;;;5044883;28;19995;-61
2022/11/15 12:09:29;;;;;;;;;;;16.50;99.90;;;;;;5044440;28;19920;-70
2022/11/15 12:11:59;;;;;;;;;;;16.50;99.90;;;;;;5047628;28;19924;-63
2022/11/15 12:14:30;;;;;;;;;;;16.60;99.90;;;;;;5064540;28;19978;-68
2022/11/15 12:16:57;;;;;;;;;;;16.50;99.90;;;;;;5063489;28;19916;-68
2022/11/15 12:19:24;;;;;;;;;;;16.50;99.90;;;;;;5064611;28;20027;-73
2022/11/15 12:21:57;;;;;;;;;;;16.40;99.90;;;;;;5054318;28;19943;-69
2022/11/15 12:24:53;;;;;;;;;;;16.50;99.90;;;;;;5050196;28;19935;-69
2022/11/15 12:27:26;;;;;;;;;;;16.60;99.90;;;;;;5056115;28;19974;-70
2022/11/15 12:29:56;;;;;;;;;;;16.60;99.90;;;;;;5077140;28;19908;-71
2022/11/15 12:32:25;;;;;;;;;;;16.60;99.90;;;;;;5076297;28;19979;-72
2022/11/15 12:34:52;;;;;;;;;;;16.60;99.90;;;;;;5076756;28;20317;-73
2022/11/15 12:37:45;;;;;;;;;;;16.60;99.90;;;;;;5076900;28;19991;-70
2022/11/15 12:40:25;;;;;;;;;;;16.70;99.90;;;;;;5074045;28;19908;-74
2022/11/15 12:42:59;;;;;;;;;;;16.80;99.90;;;;;;5075749;28;20349;-72
2022/11/15 12:45:28;;;;;;;;;;;16.70;99.90;;;;;;5076757;28;19916;-72
2022/11/15 12:48:12;;;;;;;;;;;16.70;99.90;;;;;;5076704;28;19908;-73
2022/11/15 12:50:54;;;;;;;;;;;16.70;99.90;;;;;;5076701;28;19912;-71
2022/11/15 12:53:24;;;;;;;;;;;16.70;99.90;;;;;;5073303;28;19916;-70
2022/11/15 12:56:10;;;;;;;;;;;16.70;99.90;;;;;;5076420;28;19921;-69
2022/11/15 12:58:49;;;;;;;;;;;16.70;99.90;;;;;;5065764;28;19915;-70
2022/11/15 13:01:31;;;;;;;;;;;16.60;99.90;;;;;;5076478;28;19908;-71
2022/11/15 13:04:16;;;;;;;;;;;16.70;99.90;;;;;;5076400;28;19908;-73
2022/11/15 13:06:44;;;;;;;;;;;16.60;99.90;;;;;;5075469;28;20010;-72
2022/11/15 13:09:31;;;;;;;;;;;16.50;99.90;;;;;;5076560;28;19908;-71
2022/11/15 13:11:59;;;;;;;;;;;16.50;99.90;;;;;;5062329;28;20363;-71
2022/11/15 13:14:40;;;;;;;;;;;16.50;99.90;;;;;;5076295;28;19961;-72
2022/11/15 13:17:19;;;;;;;;;;;16.40;99.90;;;;;;5074963;28;19912;-73
2022/11/15 13:19:47;;;;;;;;;;;16.40;99.90;;;;;;5075578;28;19964;-70
2022/11/15 13:24:59;;;;;;;;;;;16.40;99.90;;;;;;5076229;28;19962;-73
2022/11/15 13:27:26;;;;;;;;;;;16.40;99.90;;;;;;5076056;28;19962;-72
2022/11/15 13:29:53;;;;;;;;;;;16.30;99.90;;;;;;5076042;28;19913;-72
2022/11/15 13:32:20;;;;;;;;;;;16.30;99.90;;;;;;5075041;28;20019;-72
2022/11/15 13:34:47;;;;;;;;;;;16.20;99.90;;;;;;5074993;28;19916;-72
2022/11/15 13:37:20;;;;;;;;;;;16.20;99.90;;;;;;5075512;28;19919;-71
2022/11/15 13:39:47;;;;;;;;;;;16.20;99.90;;;;;;5076050;28;19909;-68
2022/11/15 13:42:18;;;;;;;;;;;16.10;99.90;;;;;;5074764;28;19916;-68
2022/11/15 13:45:01;;;;;;;;;;;16.00;99.90;;;;;;5075005;28;20302;-69
2022/11/15 13:47:28;;;;;;;;;;;15.90;99.90;;;;;;5075641;28;19909;-68
2022/11/15 13:49:58;;;;;;;;;;;15.90;99.90;;;;;;5075547;28;19908;-62
2022/11/15 13:52:36;;;;;;;;;;;15.80;99.90;;;;;;5075361;28;19916;-63
2022/11/15 13:55:08;;;;;;;;;;;15.80;99.90;;;;;;5075080;28;19917;-73
2022/11/15 13:57:40;;;;;;;;;;;15.90;99.90;;;;;;5074818;28;19918;-62
2022/11/15 14:00:24;;;;;;;;;;;15.90;99.90;;;;;;5075301;28;19908;-65
2022/11/15 14:02:51;;;;;;;;;;;15.90;99.90;;;;;;5075130;28;20279;-62
2022/11/15 14:05:22;;;;;;;;;;;15.80;99.90;;;;;;5075361;28;19916;-63
2022/11/15 14:07:56;;;;;;;;;;;15.90;99.90;;;;;;5073552;28;19919;-63
2022/11/15 14:10:27;;;;;;;;;;;15.80;99.90;;;;;;5075084;28;19963;-62
2022/11/15 14:12:54;;;;;;;;;;;15.70;99.90;;;;;;5074801;28;19951;-62
2022/11/15 14:15:21;;;;;;;;;;;15.80;99.90;;;;;;5075137;28;20260;-62
2022/11/15 14:17:47;;;;;;;;;;;15.60;99.90;;;;;;5075021;28;19909;-65
2022/11/15 14:20:43;;;;;;;;;;;15.70;99.90;;;;;;5074898;28;19912;-65
2022/11/15 14:23:26;;;;;;;;;;;15.80;99.90;;;;;;5055804;28;19913;-62
2022/11/15 14:25:57;;;;;;;;;;;15.60;99.90;;;;;;5074883;28;19950;-62
2022/11/15 14:28:24;;;;;;;;;;;15.70;99.90;;;;;;5074914;28;20003;-72
2022/11/15 14:30:52;;;;;;;;;;;15.80;99.90;;;;;;5074525;28;19916;-64
2022/11/15 14:33:18;;;;;;;;;;;15.80;99.90;;;;;;5073770;28;19965;-64
2022/11/15 14:35:45;;;;;;;;;;;15.70;99.90;;;;;;5074693;28;19915;-63
2022/11/15 14:38:12;;;;;;;;;;;15.70;99.90;;;;;;5074465;28;19909;-65
2022/11/15 14:40:38;;;;;;;;;;;15.60;99.90;;;;;;5074637;28;19908;-64
2022/11/15 14:43:08;;;;;;;;;;;15.70;99.90;;;;;;5074500;28;19956;-62
2022/11/15 14:45:35;;;;;;;;;;;15.60;99.90;;;;;;5074426;28;19965;-61
2022/11/15 14:48:01;;;;;;;;;;;15.50;99.90;;;;;;5072590;28;19916;-62
2022/11/15 14:50:28;;;;;;;;;;;15.40;99.90;;;;;;5074308;28;20011;-66
2022/11/15 14:52:55;;;;;;;;;;;15.40;99.90;;;;;;5074098;28;19916;-63